sensor_id;sensor_type;location;lat;lon;timestamp;pressure;altitude;pressure_sealevel;temperature;humidity
22605;BME280;11469;49.024;8.246;2024-02-21T00:01:44;101498.19;;;7.30;100.00
22605;BME280;11469;49.024;8.246;2024-02-21T00:04:09;101494.25;;;7.31;100.00
22605;BME280;11469;49.024;8.246;2024-02-21T00:06:34;101486.41;;;7.33;100.00
22605;BME280;11469;49.024;8.246;2024-02-21T00:09:00;101490.53;;;7.36;100.00
22605;BME280;11469;49.024;8.246;2024-02-21T00:11:25;101483.31;;;7.35;100.00
22605;BME280;11469;49.024;8.246;2024-02-21T00:13:50;101482.16;;;7.36;100.00
22605;BME280;11469;49.024;8.246;2024-02-21T00:16:16;101472.34;;;7.38;100.00
22605;BME280;11469;49.024;8.246;2024-02-21T00:18:42;101471.53;;;7.38;100.00
22605;BME280;11469;49.024;8.246;2024-02-21T00:21:08;101465.63;;;7.39;100.00
22605;BME280;11469;49.024;8.246;2024-02-21T00:23:33;101468.09;;;7.41;100.00
22605;BME280;11469;49.024;8.246;2024-02-21T00:25:58;101461.19;;;7.38;100.00
22605;BME280;11469;49.024;8.246;2024-02-21T00:28:24;101453.66;;;7.39;100.00
22605;BME280;11469;49.024;8.246;2024-02-21T00:30:49;101446.72;;;7.36;100.00
22605;BME280;11469;49.024;8.246;2024-02-21T00:33:16;101444.13;;;7.40;100.00
22605;BME280;11469;49.024;8.246;2024-02-21T00:35:42;101444.44;;;7.38;100.00
22605;BME280;11469;49.024;8.246;2024-02-21T00:38:07;101440.00;;;7.37;100.00
22605;BME280;11469;49.024;8.246;2024-02-21T00:40:32;101446.41;;;7.38;100.00
22605;BME280;11469;49.024;8.246;2024-02-21T00:42:58;101440.00;;;7.37;100.00
22605;BME280;11469;49.024;8.246;2024-02-21T00:45:23;101440.53;;;7.39;100.00
22605;BME280;11469;49.024;8.246;2024-02-21T00:47:48;101434.94;;;7.39;100.00
22605;BME280;11469;49.024;8.246;2024-02-21T00:50:14;101428.53;;;7.39;100.00
22605;BME280;11469;49.024;8.246;2024-02-21T00:52:39;101427.41;;;7.40;100.00
22605;BME280;11469;49.024;8.246;2024-02-21T00:55:05;101430.00;;;7.36;100.00
22605;BME280;11469;49.024;8.246;2024-02-21T00:57:30;101427.84;;;7.33;100.00
22605;BME280;11469;49.024;8.246;2024-02-21T00:59:57;101418.66;;;7.32;100.00
22605;BME280;11469;49.024;8.246;2024-02-21T01:02:22;101414.22;;;7.31;100.00
22605;BME280;11469;49.024;8.246;2024-02-21T01:04:48;101407.41;;;7.24;100.00
22605;BME280;11469;49.024;8.246;2024-02-21T01:07:13;101405.66;;;7.28;100.00
22605;BME280;11469;49.024;8.246;2024-02-21T01:09:38;101402.78;;;7.19;100.00
22605;BME280;11469;49.024;8.246;2024-02-21T01:12:04;101398.97;;;7.15;100.00
22605;BME280;11469;49.024;8.246;2024-02-21T01:14:29;101400.63;;;7.16;100.00
22605;BME280;11469;49.024;8.246;2024-02-21T01:16:55;101400.41;;;7.13;100.00
22605;BME280;11469;49.024;8.246;2024-02-21T01:19:20;101385.66;;;7.12;100.00
22605;BME280;11469;49.024;8.246;2024-02-21T01:21:45;101370.72;;;7.08;100.00
22605;BME280;11469;49.024;8.246;2024-02-21T01:24:11;101372.19;;;7.06;100.00
22605;BME280;11469;49.024;8.246;2024-02-21T01:26:36;101363.13;;;7.00;100.00
22605;BME280;11469;49.024;8.246;2024-02-21T01:29:01;101356.50;;;6.96;100.00
22605;BME280;11469;49.024;8.246;2024-02-21T01:31:27;101348.16;;;6.96;100.00
22605;BME280;11469;49.024;8.246;2024-02-21T01:33:52;101346.50;;;6.95;100.00
22605;BME280;11469;49.024;8.246;2024-02-21T01:36:18;101351.75;;;6.96;100.00
22605;BME280;11469;49.024;8.246;2024-02-21T01:38:43;101357.16;;;6.93;100.00
22605;BME280;11469;49.024;8.246;2024-02-21T01:41:09;101367.47;;;6.92;100.00
22605;BME280;11469;49.024;8.246;2024-02-21T01:43:34;101362.91;;;6.96;100.00
22605;BME280;11469;49.024;8.246;2024-02-21T01:46:00;101365.69;;;6.96;100.00
22605;BME280;11469;49.024;8.246;2024-02-21T01:48:26;101369.31;;;6.97;100.00
22605;BME280;11469;49.024;8.246;2024-02-21T01:50:52;101366.84;;;6.95;100.00
22605;BME280;11469;49.024;8.246;2024-02-21T01:53:37;101364.16;;;6.90;100.00
22605;BME280;11469;49.024;8.246;2024-02-21T01:56:03;101356.13;;;6.89;100.00
22605;BME280;11469;49.024;8.246;2024-02-21T01:58:30;101351.81;;;6.83;100.00
22605;BME280;11469;49.024;8.246;2024-02-21T02:00:57;101354.91;;;6.81;100.00
22605;BME280;11469;49.024;8.246;2024-02-21T02:03:24;101357.69;;;6.81;100.00
22605;BME280;11469;49.024;8.246;2024-02-21T02:05:51;101355.59;;;6.87;100.00
22605;BME280;11469;49.024;8.246;2024-02-21T02:08:18;101348.69;;;6.84;100.00
22605;BME280;11469;49.024;8.246;2024-02-21T02:10:44;101346.75;;;6.85;100.00
22605;BME280;11469;49.024;8.246;2024-02-21T02:13:11;101355.41;;;6.83;100.00
22605;BME280;11469;49.024;8.246;2024-02-21T02:15:43;101337.34;;;6.81;100.00
22605;BME280;11469;49.024;8.246;2024-02-21T02:18:09;101333.84;;;6.75;100.00
22605;BME280;11469;49.024;8.246;2024-02-21T02:20:35;101328.78;;;6.77;100.00
22605;BME280;11469;49.024;8.246;2024-02-21T02:23:10;101327.16;;;6.76;100.00
22605;BME280;11469;49.024;8.246;2024-02-21T02:25:36;101341.59;;;6.78;100.00
22605;BME280;11469;49.024;8.246;2024-02-21T02:28:05;101331.47;;;6.82;100.00
22605;BME280;11469;49.024;8.246;2024-02-21T02:30:35;101316.50;;;6.78;100.00
22605;BME280;11469;49.024;8.246;2024-02-21T02:33:04;101310.94;;;6.78;100.00
22605;BME280;11469;49.024;8.246;2024-02-21T02:35:30;101301.06;;;6.72;100.00
22605;BME280;11469;49.024;8.246;2024-02-21T02:37:55;101303.22;;;6.75;100.00
22605;BME280;11469;49.024;8.246;2024-02-21T02:40:21;101298.47;;;6.76;100.00
22605;BME280;11469;49.024;8.246;2024-02-21T02:42:46;101302.69;;;6.73;100.00
22605;BME280;11469;49.024;8.246;2024-02-21T02:45:14;101310.22;;;6.73;100.00
22605;BME280;11469;49.024;8.246;2024-02-21T02:47:40;101294.97;;;6.70;100.00
22605;BME280;11469;49.024;8.246;2024-02-21T02:50:06;101287.13;;;6.72;100.00
22605;BME280;11469;49.024;8.246;2024-02-21T02:52:31;101276.59;;;6.69;100.00
22605;BME280;11469;49.024;8.246;2024-02-21T02:54:57;101284.44;;;6.67;100.00
22605;BME280;11469;49.024;8.246;2024-02-21T02:57:23;101266.25;;;6.61;100.00
22605;BME280;11469;49.024;8.246;2024-02-21T02:59:49;101264.75;;;6.63;100.00
22605;BME280;11469;49.024;8.246;2024-02-21T03:02:15;101265.88;;;6.62;100.00
22605;BME280;11469;49.024;8.246;2024-02-21T03:04:40;101257.38;;;6.59;100.00
22605;BME280;11469;49.024;8.246;2024-02-21T03:07:06;101248.56;;;6.65;100.00
22605;BME280;11469;49.024;8.246;2024-02-21T03:09:31;101241.00;;;6.66;100.00
22605;BME280;11469;49.024;8.246;2024-02-21T03:11:57;101235.59;;;6.61;100.00
22605;BME280;11469;49.024;8.246;2024-02-21T03:14:31;101233.75;;;6.56;100.00
22605;BME280;11469;49.024;8.246;2024-02-21T03:17:00;101241.78;;;6.58;100.00
22605;BME280;11469;49.024;8.246;2024-02-21T03:19:26;101241.78;;;6.58;100.00
22605;BME280;11469;49.024;8.246;2024-02-21T03:21:52;101242.16;;;6.65;100.00
22605;BME280;11469;49.024;8.246;2024-02-21T03:24:19;101231.63;;;6.62;100.00
22605;BME280;11469;49.024;8.246;2024-02-21T03:26:45;101230.50;;;6.63;100.00
22605;BME280;11469;49.024;8.246;2024-02-21T03:29:12;101226.41;;;6.60;100.00
22605;BME280;11469;49.024;8.246;2024-02-21T03:31:38;101230.03;;;6.61;100.00
22605;BME280;11469;49.024;8.246;2024-02-21T03:34:03;101230.03;;;6.61;100.00
22605;BME280;11469;49.024;8.246;2024-02-21T03:36:29;101213.31;;;6.61;100.00
22605;BME280;11469;49.024;8.246;2024-02-21T03:38:55;101227.41;;;6.64;100.00
22605;BME280;11469;49.024;8.246;2024-02-21T03:41:21;101212.66;;;6.64;100.00
22605;BME280;11469;49.024;8.246;2024-02-21T03:43:46;101201.50;;;6.64;100.00
22605;BME280;11469;49.024;8.246;2024-02-21T03:46:12;101206.72;;;6.57;100.00
22605;BME280;11469;49.024;8.246;2024-02-21T03:48:37;101215.41;;;6.55;100.00
22605;BME280;11469;49.024;8.246;2024-02-21T03:51:03;101213.25;;;6.52;100.00
22605;BME280;11469;49.024;8.246;2024-02-21T03:53:28;101219.31;;;6.54;100.00
22605;BME280;11469;49.024;8.246;2024-02-21T03:55:54;101228.00;;;6.53;100.00
22605;BME280;11469;49.024;8.246;2024-02-21T03:58:20;101221.28;;;6.54;100.00
22605;BME280;11469;49.024;8.246;2024-02-21T04:00:45;101221.91;;;6.51;100.00
22605;BME280;11469;49.024;8.246;2024-02-21T04:03:11;101220.69;;;6.43;100.00
22605;BME280;11469;49.024;8.246;2024-02-21T04:05:36;101230.38;;;6.46;100.00
22605;BME280;11469;49.024;8.246;2024-02-21T04:08:05;101234.09;;;6.41;100.00
22605;BME280;11469;49.024;8.246;2024-02-21T04:10:31;101225.56;;;6.38;100.00
22605;BME280;11469;49.024;8.246;2024-02-21T04:12:57;101235.66;;;6.33;100.00
22605;BME280;11469;49.024;8.246;2024-02-21T04:15:22;101229.59;;;6.31;100.00
22605;BME280;11469;49.024;8.246;2024-02-21T04:17:47;101235.47;;;6.30;100.00
22605;BME280;11469;49.024;8.246;2024-02-21T04:20:15;101234.84;;;6.33;100.00
22605;BME280;11469;49.024;8.246;2024-02-21T04:22:44;101223.91;;;6.37;100.00
22605;BME280;11469;49.024;8.246;2024-02-21T04:25:12;101216.59;;;6.27;100.00
22605;BME280;11469;49.024;8.246;2024-02-21T04:27:41;101226.91;;;6.26;100.00
22605;BME280;11469;49.024;8.246;2024-02-21T04:30:07;101222.59;;;6.20;100.00
22605;BME280;11469;49.024;8.246;2024-02-21T04:32:33;101218.47;;;6.18;100.00
22605;BME280;11469;49.024;8.246;2024-02-21T04:34:59;101210.44;;;6.16;100.00
22605;BME280;11469;49.024;8.246;2024-02-21T04:37:24;101205.53;;;6.13;100.00
22605;BME280;11469;49.024;8.246;2024-02-21T04:39:50;101197.59;;;6.07;100.00
22605;BME280;11469;49.024;8.246;2024-02-21T04:42:15;101214.59;;;6.05;100.00
22605;BME280;11469;49.024;8.246;2024-02-21T04:44:41;101198.72;;;6.06;100.00
22605;BME280;11469;49.024;8.246;2024-02-21T04:47:06;101200.50;;;6.02;100.00
22605;BME280;11469;49.024;8.246;2024-02-21T04:49:32;101192.25;;;5.96;100.00
22605;BME280;11469;49.024;8.246;2024-02-21T04:51:57;101186.25;;;6.03;100.00
22605;BME280;11469;49.024;8.246;2024-02-21T04:54:23;101181.00;;;6.02;100.00
22605;BME280;11469;49.024;8.246;2024-02-21T04:56:48;101172.97;;;6.00;100.00
22605;BME280;11469;49.024;8.246;2024-02-21T04:59:13;101154.94;;;5.97;100.00
22605;BME280;11469;49.024;8.246;2024-02-21T05:01:39;101153.50;;;6.00;100.00
22605;BME280;11469;49.024;8.246;2024-02-21T05:04:04;101146.47;;;6.03;100.00
22605;BME280;11469;49.024;8.246;2024-02-21T05:06:30;101160.19;;;5.99;100.00
22605;BME280;11469;49.024;8.246;2024-02-21T05:08:55;101143.19;;;6.01;100.00
22605;BME280;11469;49.024;8.246;2024-02-21T05:11:21;101139.28;;;6.02;100.00
22605;BME280;11469;49.024;8.246;2024-02-21T05:13:47;101137.63;;;6.01;100.00
22605;BME280;11469;49.024;8.246;2024-02-21T05:16:12;101130.53;;;5.94;100.00
22605;BME280;11469;49.024;8.246;2024-02-21T05:18:37;101146.09;;;5.95;100.00
22605;BME280;11469;49.024;8.246;2024-02-21T05:21:03;101137.03;;;5.90;100.00
22605;BME280;11469;49.024;8.246;2024-02-21T05:23:29;101130.63;;;5.89;100.00
22605;BME280;11469;49.024;8.246;2024-02-21T05:25:55;101139.88;;;5.85;100.00
22605;BME280;11469;49.024;8.246;2024-02-21T05:28:20;101142.66;;;5.85;100.00
22605;BME280;11469;49.024;8.246;2024-02-21T05:30:45;101149.16;;;5.80;100.00
22605;BME280;11469;49.024;8.246;2024-02-21T05:33:11;101150.28;;;5.79;100.00
22605;BME280;11469;49.024;8.246;2024-02-21T05:35:36;101140.63;;;5.77;100.00
22605;BME280;11469;49.024;8.246;2024-02-21T05:38:02;101130.63;;;5.76;100.00
22605;BME280;11469;49.024;8.246;2024-02-21T05:40:31;101124.34;;;5.70;100.00
22605;BME280;11469;49.024;8.246;2024-02-21T05:42:57;101121.25;;;5.72;100.00
22605;BME280;11469;49.024;8.246;2024-02-21T05:45:23;101116.66;;;5.67;100.00
22605;BME280;11469;49.024;8.246;2024-02-21T05:47:48;101111.19;;;5.62;100.00
22605;BME280;11469;49.024;8.246;2024-02-21T05:50:13;101118.72;;;5.61;100.00
22605;BME280;11469;49.024;8.246;2024-02-21T05:52:39;101114.59;;;5.59;100.00
22605;BME280;11469;49.024;8.246;2024-02-21T05:55:06;101108.22;;;5.58;100.00
22605;BME280;11469;49.024;8.246;2024-02-21T05:57:32;101113.25;;;5.56;100.00
22605;BME280;11469;49.024;8.246;2024-02-21T05:59:57;101111.31;;;5.57;100.00
22605;BME280;11469;49.024;8.246;2024-02-21T06:02:22;101120.47;;;5.57;100.00
22605;BME280;11469;49.024;8.246;2024-02-21T06:04:48;101113.56;;;5.55;100.00
22605;BME280;11469;49.024;8.246;2024-02-21T06:07:13;101108.84;;;5.55;100.00
22605;BME280;11469;49.024;8.246;2024-02-21T06:09:39;101109.88;;;5.59;100.00
22605;BME280;11469;49.024;8.246;2024-02-21T06:12:04;101105.75;;;5.57;100.00
22605;BME280;11469;49.024;8.246;2024-02-21T06:14:29;101096.59;;;5.56;100.00
22605;BME280;11469;49.024;8.246;2024-02-21T06:16:55;101092.47;;;5.54;100.00
22605;BME280;11469;49.024;8.246;2024-02-21T06:19:20;101089.69;;;5.54;100.00
22605;BME280;11469;49.024;8.246;2024-02-21T06:21:46;101082.16;;;5.54;100.00
22605;BME280;11469;49.024;8.246;2024-02-21T06:24:11;101089.69;;;5.54;100.00
22605;BME280;11469;49.024;8.246;2024-02-21T06:26:38;101092.16;;;5.55;100.00
22605;BME280;11469;49.024;8.246;2024-02-21T06:29:03;101090.50;;;5.54;100.00
22605;BME280;11469;49.024;8.246;2024-02-21T06:31:29;101092.78;;;5.52;100.00
22605;BME280;11469;49.024;8.246;2024-02-21T06:33:54;101085.78;;;5.55;100.00
22605;BME280;11469;49.024;8.246;2024-02-21T06:36:20;101085.56;;;5.51;100.00
22605;BME280;11469;49.024;8.246;2024-02-21T06:38:45;101082.78;;;5.51;100.00
22605;BME280;11469;49.024;8.246;2024-02-21T06:41:20;101079.91;;;5.56;100.00
22605;BME280;11469;49.024;8.246;2024-02-21T06:43:46;101069.41;;;5.53;100.00
22605;BME280;11469;49.024;8.246;2024-02-21T06:46:12;101086.09;;;5.53;100.00
22605;BME280;11469;49.024;8.246;2024-02-21T06:48:37;101079.06;;;5.56;100.00
22605;BME280;11469;49.024;8.246;2024-02-21T06:51:03;101082.06;;;5.59;100.00
22605;BME280;11469;49.024;8.246;2024-02-21T06:53:29;101073.41;;;5.61;100.00
22605;BME280;11469;49.024;8.246;2024-02-21T06:55:54;101071.97;;;5.63;100.00
22605;BME280;11469;49.024;8.246;2024-02-21T06:58:19;101079.97;;;5.65;100.00
22605;BME280;11469;49.024;8.246;2024-02-21T07:00:45;101080.50;;;5.67;100.00
22605;BME280;11469;49.024;8.246;2024-02-21T07:03:10;101082.94;;;5.68;100.00
22605;BME280;11469;49.024;8.246;2024-02-21T07:05:36;101083.97;;;5.73;100.00
22605;BME280;11469;49.024;8.246;2024-02-21T07:08:01;101085.81;;;5.77;100.00
22605;BME280;11469;49.024;8.246;2024-02-21T07:10:27;101075.19;;;5.79;100.00
22605;BME280;11469;49.024;8.246;2024-02-21T07:12:54;101076.31;;;5.78;100.00
22605;BME280;11469;49.024;8.246;2024-02-21T07:15:20;101077.66;;;5.81;100.00
22605;BME280;11469;49.024;8.246;2024-02-21T07:17:45;101079.50;;;5.85;100.00
22605;BME280;11469;49.024;8.246;2024-02-21T07:20:11;101070.84;;;5.87;100.00
22605;BME280;11469;49.024;8.246;2024-02-21T07:22:36;101072.41;;;5.93;100.00
22605;BME280;11469;49.024;8.246;2024-02-21T07:25:02;101065.91;;;5.97;100.00
22605;BME280;11469;49.024;8.246;2024-02-21T07:27:27;101066.09;;;6.01;100.00
22605;BME280;11469;49.024;8.246;2024-02-21T07:29:56;101069.06;;;6.05;100.00
22605;BME280;11469;49.024;8.246;2024-02-21T07:32:21;101066.78;;;6.07;100.00
22605;BME280;11469;49.024;8.246;2024-02-21T07:34:47;101057.81;;;6.10;100.00
22605;BME280;11469;49.024;8.246;2024-02-21T07:37:12;101066.38;;;6.22;100.00
22605;BME280;11469;49.024;8.246;2024-02-21T07:39:38;101063.47;;;6.27;100.00
22605;BME280;11469;49.024;8.246;2024-02-21T07:42:03;101072.53;;;6.32;100.00
22605;BME280;11469;49.024;8.246;2024-02-21T07:44:29;101078.28;;;6.36;100.00
22605;BME280;11469;49.024;8.246;2024-02-21T07:46:54;101076.84;;;6.39;100.00
22605;BME280;11469;49.024;8.246;2024-02-21T07:49:19;101075.56;;;6.45;100.00
22605;BME280;11469;49.024;8.246;2024-02-21T07:51:45;101066.44;;;6.53;100.00
22605;BME280;11469;49.024;8.246;2024-02-21T07:54:10;101069.59;;;6.60;100.00
22605;BME280;11469;49.024;8.246;2024-02-21T07:56:36;101061.91;;;6.65;100.00
22605;BME280;11469;49.024;8.246;2024-02-21T07:59:01;101063.09;;;6.73;100.00
22605;BME280;11469;49.024;8.246;2024-02-21T08:01:26;101056.75;;;6.81;100.00
22605;BME280;11469;49.024;8.246;2024-02-21T08:03:52;101059.91;;;6.88;100.00
22605;BME280;11469;49.024;8.246;2024-02-21T08:06:17;101062.72;;;6.97;100.00
22605;BME280;11469;49.024;8.246;2024-02-21T08:08:43;101055.38;;;7.01;100.00
22605;BME280;11469;49.024;8.246;2024-02-21T08:11:08;101054.91;;;7.08;100.00
22605;BME280;11469;49.024;8.246;2024-02-21T08:13:33;101063.59;;;7.15;100.00
22605;BME280;11469;49.024;8.246;2024-02-21T08:15:59;101051.63;;;7.14;100.00
22605;BME280;11469;49.024;8.246;2024-02-21T08:18:25;101041.28;;;7.15;100.00
22605;BME280;11469;49.024;8.246;2024-02-21T08:20:50;101039.50;;;7.19;100.00
22605;BME280;11469;49.024;8.246;2024-02-21T08:23:16;101040.00;;;7.21;100.00
22605;BME280;11469;49.024;8.246;2024-02-21T08:25:42;101034.94;;;7.23;100.00
22605;BME280;11469;49.024;8.246;2024-02-21T08:28:07;101025.28;;;7.29;100.00
22605;BME280;11469;49.024;8.246;2024-02-21T08:30:33;101024.00;;;7.44;100.00
22605;BME280;11469;49.024;8.246;2024-02-21T08:32:59;101024.00;;;7.44;100.00
22605;BME280;11469;49.024;8.246;2024-02-21T08:35:24;101025.81;;;7.48;100.00
22605;BME280;11469;49.024;8.246;2024-02-21T08:37:50;101021.72;;;7.54;100.00
22605;BME280;11469;49.024;8.246;2024-02-21T08:40:15;101025.97;;;7.52;100.00
22605;BME280;11469;49.024;8.246;2024-02-21T08:42:46;101019.56;;;7.60;100.00
22605;BME280;11469;49.024;8.246;2024-02-21T08:45:11;101019.06;;;7.66;100.00
22605;BME280;11469;49.024;8.246;2024-02-21T08:47:39;101010.38;;;7.68;100.00
22605;BME280;11469;49.024;8.246;2024-02-21T08:50:05;101011.22;;;7.77;100.00
22605;BME280;11469;49.024;8.246;2024-02-21T08:52:31;101016.94;;;7.81;100.00
22605;BME280;11469;49.024;8.246;2024-02-21T08:54:57;101014.97;;;7.90;100.00
22605;BME280;11469;49.024;8.246;2024-02-21T08:57:22;101004.44;;;8.04;100.00
22605;BME280;11469;49.024;8.246;2024-02-21T08:59:47;101011.16;;;8.12;100.00
22605;BME280;11469;49.024;8.246;2024-02-21T09:02:13;101011.50;;;8.10;100.00
22605;BME280;11469;49.024;8.246;2024-02-21T09:04:41;101000.38;;;8.02;100.00
22605;BME280;11469;49.024;8.246;2024-02-21T09:07:07;101005.44;;;8.08;100.00
22605;BME280;11469;49.024;8.246;2024-02-21T09:09:32;101000.81;;;8.12;100.00
22605;BME280;11469;49.024;8.246;2024-02-21T09:11:58;101004.44;;;8.13;100.00
22605;BME280;11469;49.024;8.246;2024-02-21T09:14:31;100994.75;;;8.19;100.00
22605;BME280;11469;49.024;8.246;2024-02-21T09:16:56;101004.09;;;8.23;100.00
22605;BME280;11469;49.024;8.246;2024-02-21T09:19:21;100981.09;;;8.26;100.00
22605;BME280;11469;49.024;8.246;2024-02-21T09:21:47;100983.88;;;8.26;100.00
22605;BME280;11469;49.024;8.246;2024-02-21T09:24:12;100990.63;;;8.34;100.00
22605;BME280;11469;49.024;8.246;2024-02-21T09:26:37;100982.41;;;8.37;100.00
22605;BME280;11469;49.024;8.246;2024-02-21T09:29:03;100979.59;;;8.46;100.00
22605;BME280;11469;49.024;8.246;2024-02-21T09:31:29;100973.47;;;8.52;100.00
22605;BME280;11469;49.024;8.246;2024-02-21T09:33:54;100975.09;;;8.62;100.00
22605;BME280;11469;49.024;8.246;2024-02-21T09:36:20;100977.38;;;8.60;100.00
22605;BME280;11469;49.024;8.246;2024-02-21T09:38:46;100974.22;;;8.70;100.00
22605;BME280;11469;49.024;8.246;2024-02-21T09:41:16;100966.81;;;8.74;100.00
22605;BME280;11469;49.024;8.246;2024-02-21T09:43:45;100966.94;;;8.86;100.00
22605;BME280;11469;49.024;8.246;2024-02-21T09:46:18;100967.25;;;8.85;100.00
22605;BME280;11469;49.024;8.246;2024-02-21T09:49:03;100961.16;;;8.91;100.00
22605;BME280;11469;49.024;8.246;2024-02-21T09:51:34;100960.75;;;9.02;100.00
22605;BME280;11469;49.024;8.246;2024-02-21T09:54:00;100954.88;;;8.94;98.96
22605;BME280;11469;49.024;8.246;2024-02-21T09:56:26;100958.28;;;9.00;98.27
22605;BME280;11469;49.024;8.246;2024-02-21T09:58:51;100956.09;;;9.06;98.92
22605;BME280;11469;49.024;8.246;2024-02-21T10:01:16;100945.22;;;9.13;98.35
22605;BME280;11469;49.024;8.246;2024-02-21T10:03:42;100946.47;;;9.24;97.92
22605;BME280;11469;49.024;8.246;2024-02-21T10:06:09;100944.34;;;9.21;96.48
22605;BME280;11469;49.024;8.246;2024-02-21T10:08:34;100935.34;;;9.36;97.23
22605;BME280;11469;49.024;8.246;2024-02-21T10:11:03;100932.94;;;9.47;96.50
22605;BME280;11469;49.024;8.246;2024-02-21T10:13:29;100923.38;;;9.48;95.62
22605;BME280;11469;49.024;8.246;2024-02-21T10:16:02;100921.34;;;9.57;95.21
22605;BME280;11469;49.024;8.246;2024-02-21T10:18:28;100917.03;;;9.59;93.68
22605;BME280;11469;49.024;8.246;2024-02-21T10:21:03;100908.56;;;9.68;93.90
22605;BME280;11469;49.024;8.246;2024-02-21T10:23:29;100915.13;;;9.72;93.35
22605;BME280;11469;49.024;8.246;2024-02-21T10:26:05;100904.75;;;9.73;93.19
22605;BME280;11469;49.024;8.246;2024-02-21T10:28:31;100903.72;;;9.77;91.69
22605;BME280;11469;49.024;8.246;2024-02-21T10:30:56;100907.72;;;9.88;92.00
22605;BME280;11469;49.024;8.246;2024-02-21T10:33:22;100904.31;;;9.95;91.99
22605;BME280;11469;49.024;8.246;2024-02-21T10:35:49;100900.03;;;9.97;90.33
22605;BME280;11469;49.024;8.246;2024-02-21T10:38:15;100891.06;;;10.04;90.60
22605;BME280;11469;49.024;8.246;2024-02-21T10:40:40;100887.91;;;10.06;90.14
22605;BME280;11469;49.024;8.246;2024-02-21T10:43:12;100886.31;;;10.17;90.25
22605;BME280;11469;49.024;8.246;2024-02-21T10:45:38;100877.38;;;10.23;89.63
22605;BME280;11469;49.024;8.246;2024-02-21T10:48:14;100871.66;;;10.32;90.15
22605;BME280;11469;49.024;8.246;2024-02-21T10:56:15;100856.59;;;10.49;87.89
22605;BME280;11469;49.024;8.246;2024-02-21T10:58:42;100847.72;;;10.47;87.29
22605;BME280;11469;49.024;8.246;2024-02-21T11:01:09;100843.28;;;10.58;87.38
22605;BME280;11469;49.024;8.246;2024-02-21T11:03:35;100847.38;;;10.60;86.90
22605;BME280;11469;49.024;8.246;2024-02-21T11:06:01;100839.53;;;10.66;86.69
22605;BME280;11469;49.024;8.246;2024-02-21T11:08:27;100833.59;;;10.68;84.84
22605;BME280;11469;49.024;8.246;2024-02-21T11:10:57;100829.25;;;10.70;84.10
22605;BME280;11469;49.024;8.246;2024-02-21T11:13:30;100826.56;;;10.61;83.82
22605;BME280;11469;49.024;8.246;2024-02-21T11:16:09;100823.53;;;10.67;84.71
22605;BME280;11469;49.024;8.246;2024-02-21T11:18:35;100824.69;;;10.66;84.57
22605;BME280;11469;49.024;8.246;2024-02-21T11:21:01;100815.25;;;10.70;84.50
22605;BME280;11469;49.024;8.246;2024-02-21T11:23:27;100811.97;;;10.80;83.90
22605;BME280;11469;49.024;8.246;2024-02-21T11:25:52;100814.59;;;10.89;84.19
22605;BME280;11469;49.024;8.246;2024-02-21T11:28:25;100808.75;;;10.94;83.09
22605;BME280;11469;49.024;8.246;2024-02-21T11:30:51;100810.16;;;10.88;82.79
22605;BME280;11469;49.024;8.246;2024-02-21T11:33:16;100801.84;;;10.91;82.42
22605;BME280;11469;49.024;8.246;2024-02-21T11:35:42;100788.25;;;10.78;82.64
22605;BME280;11469;49.024;8.246;2024-02-21T11:38:11;100780.53;;;10.75;82.03
22605;BME280;11469;49.024;8.246;2024-02-21T11:40:44;100783.94;;;10.68;82.13
22605;BME280;11469;49.024;8.246;2024-02-21T11:43:09;100770.16;;;10.75;83.03
22605;BME280;11469;49.024;8.246;2024-02-21T11:45:35;100764.19;;;10.77;83.03
22605;BME280;11469;49.024;8.246;2024-02-21T11:48:00;100768.72;;;10.81;82.38
22605;BME280;11469;49.024;8.246;2024-02-21T11:50:28;100751.34;;;10.76;82.56
22605;BME280;11469;49.024;8.246;2024-02-21T11:52:54;100758.56;;;10.77;82.49
22605;BME280;11469;49.024;8.246;2024-02-21T11:55:21;100753.69;;;10.74;82.79
22605;BME280;11469;49.024;8.246;2024-02-21T11:57:48;100755.88;;;10.80;82.98
22605;BME280;11469;49.024;8.246;2024-02-21T12:00:14;100748.13;;;10.89;82.66
22605;BME280;11469;49.024;8.246;2024-02-21T12:02:41;100736.53;;;10.91;81.71
22605;BME280;11469;49.024;8.246;2024-02-21T12:05:07;100732.69;;;10.95;82.68
22605;BME280;11469;49.024;8.246;2024-02-21T12:07:33;100722.72;;;10.98;80.52
22605;BME280;11469;49.024;8.246;2024-02-21T12:10:01;100714.06;;;11.03;82.25
22605;BME280;11469;49.024;8.246;2024-02-21T12:12:26;100716.97;;;11.07;80.98
22605;BME280;11469;49.024;8.246;2024-02-21T12:14:55;100715.19;;;11.14;80.47
22605;BME280;11469;49.024;8.246;2024-02-21T12:17:23;100704.88;;;11.18;81.55
22605;BME280;11469;49.024;8.246;2024-02-21T12:19:50;100705.25;;;11.17;81.26
22605;BME280;11469;49.024;8.246;2024-02-21T12:22:19;100696.94;;;11.20;80.57
22605;BME280;11469;49.024;8.246;2024-02-21T12:24:44;100691.41;;;11.24;80.61
22605;BME280;11469;49.024;8.246;2024-02-21T12:27:13;100693.66;;;11.18;80.66
22605;BME280;11469;49.024;8.246;2024-02-21T12:29:39;100680.75;;;11.29;82.23
22605;BME280;11469;49.024;8.246;2024-02-21T12:32:04;100687.28;;;11.34;80.66
22605;BME280;11469;49.024;8.246;2024-02-21T12:34:30;100677.47;;;11.43;80.49
22605;BME280;11469;49.024;8.246;2024-02-21T12:36:59;100670.53;;;11.53;80.66
22605;BME280;11469;49.024;8.246;2024-02-21T12:39:24;100666.63;;;11.57;79.04
22605;BME280;11469;49.024;8.246;2024-02-21T12:41:52;100660.72;;;11.47;79.31
22605;BME280;11469;49.024;8.246;2024-02-21T12:44:18;100663.91;;;11.45;79.72
22605;BME280;11469;49.024;8.246;2024-02-21T12:46:43;100650.78;;;11.49;79.81
22605;BME280;11469;49.024;8.246;2024-02-21T12:49:10;100648.69;;;11.46;79.70
22605;BME280;11469;49.024;8.246;2024-02-21T12:51:35;100645.81;;;11.58;79.08